Time;durP1;ratioP1;P1;durP2;ratioP2;P2;SDS_P1;SDS_P2;PMS_P1;PMS_P2;Temp;Humidity;BMP_temperature;BMP_pressure;BME280_temperature;BME280_humidity;BME280_pressure;Samples;Min_cycle;Max_cycle;Signal;HPM_P1;HPM_P2
2023/06/03 08:03:25;;;;;;;;;16.00;16.00;;;;;;;;5103822;27;13518;-64
2023/06/03 08:05:51;;;;;;;;;18.00;16.75;;;;;;;;5107235;28;8787;-71
2023/06/03 08:08:20;;;;;;;;;18.67;16.00;;;;;;;;5107301;28;8803;-64
2023/06/03 08:10:46;;;;;;;;;20.25;16.50;;;;;;;;5116325;27;8797;-64
2023/06/03 08:13:12;;;;;;;;;15.50;15.50;;;;;;;;5127913;27;8797;-65
2023/06/03 08:15:38;;;;;;;;;15.00;15.00;;;;;;;;5123614;27;8787;-63
2023/06/03 08:18:05;;;;;;;;;16.25;16.25;;;;;;;;5106815;28;8822;-62
2023/06/03 08:20:32;;;;;;;;;15.00;14.75;;;;;;;;5107129;28;8787;-63
2023/06/03 08:22:57;;;;;;;;;19.00;16.00;;;;;;;;5106820;28;8808;-64
2023/06/03 08:25:23;;;;;;;;;18.67;17.33;;;;;;;;5106808;28;8804;-64
2023/06/03 08:27:49;;;;;;;;;12.67;12.67;;;;;;;;5107064;28;9199;-64
2023/06/03 08:30:14;;;;;;;;;12.67;12.33;;;;;;;;5106890;28;8780;-64
2023/06/03 08:32:40;;;;;;;;;21.00;17.00;;;;;;;;5106568;28;11545;-63
2023/06/03 08:35:06;;;;;;;;;20.33;17.67;;;;;;;;5106200;28;8830;-63
2023/06/03 08:37:32;;;;;;;;;15.75;14.00;;;;;;;;5106507;28;8810;-64
2023/06/03 08:39:57;;;;;;;;;19.67;18.00;;;;;;;;5106526;28;8803;-64
2023/06/03 08:42:23;;;;;;;;;16.00;16.00;;;;;;;;5106773;28;8827;-64
2023/06/03 08:44:57;;;;;;;;;19.00;17.00;;;;;;;;5106851;28;9556;-63
2023/06/03 08:47:41;;;;;;;;;19.75;17.75;;;;;;;;5106731;28;8772;-64
2023/06/03 08:50:10;;;;;;;;;15.00;14.25;;;;;;;;5106592;28;9526;-64
2023/06/03 08:52:37;;;;;;;;;16.75;15.00;;;;;;;;5106355;28;8831;-64
2023/06/03 08:55:04;;;;;;;;;16.75;16.25;;;;;;;;5106095;28;8830;-65
2023/06/03 08:57:33;;;;;;;;;18.00;17.00;;;;;;;;5105101;28;8804;-64
2023/06/03 08:59:59;;;;;;;;;13.50;13.50;;;;;;;;5106227;28;8888;-64
2023/06/03 09:02:24;;;;;;;;;16.67;15.67;;;;;;;;5105967;28;8819;-64
2023/06/03 09:04:50;;;;;;;;;18.00;17.33;;;;;;;;5104455;28;8812;-64
2023/06/03 09:07:15;;;;;;;;;20.00;19.00;;;;;;;;5106074;28;8791;-64
2023/06/03 09:09:41;;;;;;;;;18.67;18.67;;;;;;;;5105504;28;8880;-63
2023/06/03 09:12:07;;;;;;;;;16.33;16.33;;;;;;;;5106078;28;8906;-64
2023/06/03 09:14:35;;;;;;;;;17.75;17.25;;;;;;;;5093291;28;9418;-64
2023/06/03 09:17:00;;;;;;;;;22.00;19.75;;;;;;;;5092397;28;8796;-64
2023/06/03 09:19:26;;;;;;;;;19.67;17.00;;;;;;;;5092250;28;8784;-65
2023/06/03 09:21:53;;;;;;;;;21.67;20.33;;;;;;;;5092076;28;8788;-63
2023/06/03 09:24:19;;;;;;;;;17.75;17.75;;;;;;;;5091986;28;8788;-63
2023/06/03 09:26:44;;;;;;;;;18.00;17.67;;;;;;;;5092285;28;8845;-64
2023/06/03 09:29:11;;;;;;;;;16.67;13.00;;;;;;;;5091874;28;8807;-64
2023/06/03 09:31:36;;;;;;;;;16.50;16.50;;;;;;;;5092269;28;8809;-63
2023/06/03 09:34:02;;;;;;;;;21.00;18.33;;;;;;;;5090645;28;8840;-64
2023/06/03 09:36:27;;;;;;;;;17.67;16.00;;;;;;;;5091963;28;8776;-63
2023/06/03 09:38:56;;;;;;;;;17.67;17.00;;;;;;;;5091983;28;8915;-64
2023/06/03 09:41:26;;;;;;;;;19.25;18.50;;;;;;;;5092171;28;8803;-64
2023/06/03 09:43:54;;;;;;;;;22.25;21.00;;;;;;;;5092088;28;9554;-64
2023/06/03 09:46:19;;;;;;;;;44.50;35.50;;;;;;;;5091648;28;8800;-63
2023/06/03 09:48:45;;;;;;;;;27.67;26.00;;;;;;;;5091660;28;9510;-63
2023/06/03 09:51:10;;;;;;;;;18.33;17.67;;;;;;;;5091837;28;8784;-64
2023/06/03 09:53:37;;;;;;;;;18.67;18.67;;;;;;;;5092191;28;8803;-64
2023/06/03 09:56:26;;;;;;;;;25.00;23.67;;;;;;;;5091764;28;8784;-62
2023/06/03 09:58:53;;;;;;;;;21.25;21.00;;;;;;;;5091491;28;9000;-64
2023/06/03 10:01:28;;;;;;;;;20.33;19.33;;;;;;;;5091345;28;8807;-61
2023/06/03 10:03:57;;;;;;;;;21.25;20.75;;;;;;;;5087615;28;9121;-63
2023/06/03 10:06:22;;;;;;;;;23.33;22.33;;;;;;;;5091535;28;8780;-62
2023/06/03 10:08:49;;;;;;;;;22.33;21.00;;;;;;;;5094993;28;8944;-63
2023/06/03 10:11:14;;;;;;;;;22.50;21.00;;;;;;;;5096757;28;8788;-62
2023/06/03 10:13:40;;;;;;;;;21.00;20.00;;;;;;;;5091410;28;8845;-63
2023/06/03 10:16:14;;;;;;;;;19.00;19.00;;;;;;;;5091146;28;8916;-64
2023/06/03 10:18:40;;;;;;;;;21.33;20.67;;;;;;;;5091193;28;8764;-67
2023/06/03 10:21:07;;;;;;;;;19.50;18.00;;;;;;;;5089522;28;9034;-68
2023/06/03 10:23:33;;;;;;;;;17.50;15.25;;;;;;;;5091180;28;8885;-68
2023/06/03 10:25:58;;;;;;;;;21.50;21.00;;;;;;;;5090071;28;8918;-71
2023/06/03 10:28:25;;;;;;;;;31.50;30.00;;;;;;;;5091140;28;8804;-70
2023/06/03 10:30:51;;;;;;;;;20.00;19.50;;;;;;;;5095649;28;8789;-69
2023/06/03 10:33:18;;;;;;;;;20.00;20.00;;;;;;;;5111387;28;8851;-69
2023/06/03 10:35:44;;;;;;;;;18.00;18.00;;;;;;;;5100043;28;9573;-69
2023/06/03 10:38:10;;;;;;;;;21.00;20.00;;;;;;;;5090386;28;8925;-69
2023/06/03 10:40:35;;;;;;;;;21.67;20.33;;;;;;;;5089179;28;9119;-69
2023/06/03 10:43:01;;;;;;;;;32.00;30.75;;;;;;;;5090669;28;8843;-69
2023/06/03 10:45:27;;;;;;;;;25.67;25.67;;;;;;;;5090593;28;8768;-69
2023/06/03 10:47:56;;;;;;;;;21.00;21.00;;;;;;;;5090338;28;8776;-68
2023/06/03 10:50:40;;;;;;;;;18.67;18.67;;;;;;;;5086207;28;8854;-68
2023/06/03 10:53:12;;;;;;;;;22.33;21.67;;;;;;;;5088945;28;9235;-68
2023/06/03 10:55:45;;;;;;;;;18.00;17.00;;;;;;;;5088951;28;9139;-68
2023/06/03 10:58:21;;;;;;;;;17.50;17.25;;;;;;;;5090841;28;8980;-69
2023/06/03 11:00:53;;;;;;;;;17.50;17.50;;;;;;;;5099795;28;8863;-68
2023/06/03 11:03:21;;;;;;;;;20.00;19.33;;;;;;;;5100481;28;8820;-69
2023/06/03 11:05:46;;;;;;;;;22.33;21.67;;;;;;;;5087863;28;8906;-69
2023/06/03 11:08:12;;;;;;;;;21.00;20.00;;;;;;;;5089709;28;9182;-68
2023/06/03 11:10:39;;;;;;;;;15.00;15.00;;;;;;;;5087635;28;8811;-68
2023/06/03 11:13:05;;;;;;;;;20.25;19.25;;;;;;;;5089460;28;8792;-69
2023/06/03 11:15:50;;;;;;;;;19.00;19.00;;;;;;;;5089535;28;8795;-69
2023/06/03 11:18:16;;;;;;;;;23.67;20.67;;;;;;;;5082190;28;8934;-70
2023/06/03 11:20:41;;;;;;;;;20.67;20.67;;;;;;;;5088056;28;9224;-68
2023/06/03 11:23:07;;;;;;;;;16.00;13.67;;;;;;;;5089308;28;8927;-68
2023/06/03 11:25:32;;;;;;;;;18.67;17.67;;;;;;;;5089627;28;8820;-68
2023/06/03 11:28:18;;;;;;;;;16.67;16.00;;;;;;;;5089745;28;8777;-71
2023/06/03 11:30:55;;;;;;;;;15.00;15.00;;;;;;;;5074268;28;8840;-69
2023/06/03 11:33:21;;;;;;;;;17.75;16.50;;;;;;;;5088496;28;8785;-69
2023/06/03 11:35:46;;;;;;;;;16.00;16.00;;;;;;;;5089105;28;8779;-69
2023/06/03 11:38:11;;;;;;;;;18.00;16.00;;;;;;;;5089011;28;8838;-69
2023/06/03 11:40:44;;;;;;;;;14.00;14.00;;;;;;;;5088099;28;8885;-68
2023/06/03 11:43:09;;;;;;;;;28.00;26.25;;;;;;;;5086418;28;8999;-67
2023/06/03 11:45:37;;;;;;;;;27.25;25.75;;;;;;;;5089188;28;9474;-68
2023/06/03 11:48:10;;;;;;;;;24.33;21.67;;;;;;;;5089137;28;8819;-68
2023/06/03 11:50:47;;;;;;;;;18.67;17.67;;;;;;;;5069458;28;9121;-68
2023/06/03 11:53:32;;;;;;;;;21.67;19.67;;;;;;;;5069575;28;9202;-68
2023/06/03 11:56:03;;;;;;;;;19.67;19.00;;;;;;;;5100260;28;9133;-67
2023/06/03 11:58:29;;;;;;;;;18.33;17.00;;;;;;;;5089412;28;8999;-69
2023/06/03 12:01:07;;;;;;;;;14.00;14.00;;;;;;;;5089455;28;10103;-68
2023/06/03 12:03:34;;;;;;;;;13.00;13.00;;;;;;;;5089465;28;8880;-67
2023/06/03 12:06:02;;;;;;;;;14.00;14.00;;;;;;;;5089359;28;9122;-68
2023/06/03 12:08:40;;;;;;;;;16.67;16.67;;;;;;;;5088787;28;9120;-68
2023/06/03 12:11:06;;;;;;;;;17.33;16.00;;;;;;;;5089541;28;8943;-67
2023/06/03 12:13:39;;;;;;;;;14.00;13.67;;;;;;;;5090407;28;9043;-68
2023/06/03 12:16:05;;;;;;;;;16.00;15.00;;;;;;;;5088765;28;8808;-68
2023/06/03 12:18:30;;;;;;;;;17.67;16.33;;;;;;;;5088759;28;8986;-68
2023/06/03 12:20:56;;;;;;;;;14.33;12.33;;;;;;;;5088721;28;8811;-67
2023/06/03 12:23:21;;;;;;;;;13.00;12.00;;;;;;;;5086571;28;8866;-68
2023/06/03 12:25:54;;;;;;;;;14.33;12.67;;;;;;;;5088600;28;8816;-68
2023/06/03 12:28:20;;;;;;;;;13.00;13.00;;;;;;;;5086946;28;8825;-68
2023/06/03 12:30:45;;;;;;;;;13.33;12.33;;;;;;;;5088745;28;8800;-68
2023/06/03 12:33:11;;;;;;;;;16.00;14.67;;;;;;;;5088561;28;9002;-68
2023/06/03 12:35:37;;;;;;;;;14.00;14.00;;;;;;;;5089095;28;9053;-67
2023/06/03 12:38:06;;;;;;;;;18.67;16.00;;;;;;;;5088412;28;9004;-69
2023/06/03 12:40:31;;;;;;;;;14.00;13.00;;;;;;;;5089104;28;8930;-68
2023/06/03 12:42:58;;;;;;;;;12.33;10.33;;;;;;;;5099600;28;9164;-67
2023/06/03 12:45:27;;;;;;;;;13.00;13.00;;;;;;;;5104034;28;8893;-70
2023/06/03 12:47:53;;;;;;;;;10.00;10.00;;;;;;;;5109768;28;9149;-67
2023/06/03 12:50:20;;;;;;;;;11.67;11.67;;;;;;;;5110390;28;8972;-70
2023/06/03 12:52:45;;;;;;;;;13.00;12.00;;;;;;;;5096440;28;8906;-67
2023/06/03 12:55:13;;;;;;;;;10.00;10.00;;;;;;;;5078024;28;8910;-67
2023/06/03 12:57:39;;;;;;;;;12.33;12.00;;;;;;;;5072146;28;8806;-68
2023/06/03 13:00:09;;;;;;;;;12.33;11.67;;;;;;;;5072332;28;9856;-68
2023/06/03 13:02:38;;;;;;;;;16.67;15.67;;;;;;;;5089952;28;8879;-70
2023/06/03 13:05:05;;;;;;;;;16.67;16.67;;;;;;;;5106206;28;9169;-67
2023/06/03 13:07:30;;;;;;;;;18.67;16.33;;;;;;;;5092498;28;9303;-69
2023/06/03 13:10:00;;;;;;;;;12.33;12.33;;;;;;;;5091965;28;9214;-68
2023/06/03 13:12:25;;;;;;;;;11.25;10.50;;;;;;;;5092493;28;8811;-68
2023/06/03 13:14:51;;;;;;;;;8.33;8.33;;;;;;;;5094149;28;8827;-67
2023/06/03 13:17:16;;;;;;;;;11.00;11.00;;;;;;;;5112431;28;8922;-68
2023/06/03 13:19:42;;;;;;;;;10.67;9.00;;;;;;;;5112351;28;8797;-68
2023/06/03 13:22:07;;;;;;;;;12.00;11.33;;;;;;;;5111352;28;9090;-68
2023/06/03 13:24:33;;;;;;;;;11.33;11.33;;;;;;;;5112052;28;8902;-67
2023/06/03 13:26:58;;;;;;;;;11.33;11.00;;;;;;;;5112594;28;8781;-68
2023/06/03 13:29:24;;;;;;;;;12.00;9.00;;;;;;;;5111936;28;8793;-68
2023/06/03 13:31:49;;;;;;;;;5.67;5.67;;;;;;;;5092397;28;8808;-69
2023/06/03 13:34:14;;;;;;;;;9.33;9.33;;;;;;;;5090695;28;8914;-68
2023/06/03 13:36:40;;;;;;;;;10.00;10.00;;;;;;;;5090634;28;8784;-68
2023/06/03 13:39:05;;;;;;;;;11.00;11.00;;;;;;;;5090581;28;8911;-68
2023/06/03 13:41:30;;;;;;;;;9.00;9.00;;;;;;;;5090654;28;9863;-68
2023/06/03 13:43:55;;;;;;;;;12.33;11.67;;;;;;;;5090601;28;8812;-69
2023/06/03 13:46:21;;;;;;;;;10.33;10.00;;;;;;;;5090801;28;8827;-68
2023/06/03 13:48:46;;;;;;;;;11.67;9.33;;;;;;;;5088556;28;8850;-69
2023/06/03 13:51:11;;;;;;;;;10.00;10.00;;;;;;;;5089613;28;8839;-70
2023/06/03 13:53:36;;;;;;;;;8.00;5.00;;;;;;;;5089133;28;8901;-69
2023/06/03 13:56:01;;;;;;;;;12.33;11.33;;;;;;;;5087356;28;8796;-69
2023/06/03 13:58:27;;;;;;;;;11.33;10.67;;;;;;;;5090281;28;8800;-68
2023/06/03 14:00:52;;;;;;;;;10.33;10.00;;;;;;;;5088606;28;8792;-68
2023/06/03 14:03:17;;;;;;;;;11.00;10.00;;;;;;;;5091271;28;8894;-67
2023/06/03 14:05:44;;;;;;;;;9.67;9.67;;;;;;;;5087206;28;9602;-68
2023/06/03 14:08:09;;;;;;;;;10.50;9.00;;;;;;;;5090841;28;8782;-66
2023/06/03 14:10:34;;;;;;;;;12.33;11.00;;;;;;;;5090803;28;8818;-68
2023/06/03 14:13:00;;;;;;;;;13.00;10.00;;;;;;;;5090056;28;8797;-67
2023/06/03 14:15:26;;;;;;;;;12.00;10.33;;;;;;;;5070744;28;8879;-68
2023/06/03 14:17:51;;;;;;;;;11.67;11.33;;;;;;;;5069491;28;8855;-67
2023/06/03 14:20:17;;;;;;;;;11.67;10.00;;;;;;;;5068731;28;11495;-68
2023/06/03 14:22:42;;;;;;;;;10.00;10.00;;;;;;;;5067718;28;8816;-68
2023/06/03 14:25:07;;;;;;;;;11.67;11.00;;;;;;;;5070538;28;8824;-68
2023/06/03 14:27:33;;;;;;;;;10.67;9.67;;;;;;;;5091618;28;8942;-68
2023/06/03 14:29:58;;;;;;;;;12.00;11.00;;;;;;;;5090576;28;8856;-68
2023/06/03 14:32:23;;;;;;;;;11.33;11.33;;;;;;;;5091088;28;8806;-68
2023/06/03 14:34:49;;;;;;;;;12.33;10.33;;;;;;;;5087288;28;8830;-67
2023/06/03 14:37:15;;;;;;;;;10.33;9.33;;;;;;;;5089293;28;8814;-68
2023/06/03 14:39:40;;;;;;;;;10.25;10.25;;;;;;;;5090604;28;8905;-68
2023/06/03 14:42:06;;;;;;;;;11.00;10.00;;;;;;;;5090687;28;8898;-68
2023/06/03 14:44:31;;;;;;;;;10.33;9.67;;;;;;;;5090525;28;8786;-68
2023/06/03 14:46:56;;;;;;;;;10.00;9.67;;;;;;;;5088145;28;8837;-68
2023/06/03 14:49:23;;;;;;;;;14.00;11.33;;;;;;;;5090375;28;8797;-69
2023/06/03 14:51:49;;;;;;;;;13.67;12.67;;;;;;;;5072439;28;8810;-68
2023/06/03 14:54:14;;;;;;;;;9.00;9.00;;;;;;;;5071964;28;9667;-68
2023/06/03 14:56:39;;;;;;;;;10.00;10.00;;;;;;;;5073967;28;8800;-67
2023/06/03 14:59:05;;;;;;;;;10.67;10.67;;;;;;;;5052041;28;8796;-67
2023/06/03 15:01:30;;;;;;;;;11.33;10.33;;;;;;;;5074852;28;8830;-68
2023/06/03 15:03:56;;;;;;;;;11.67;11.67;;;;;;;;5090473;28;8836;-70
2023/06/03 15:06:21;;;;;;;;;12.00;11.00;;;;;;;;5056040;28;8900;-73
2023/06/03 15:08:46;;;;;;;;;11.33;11.33;;;;;;;;5069683;28;8804;-72
2023/06/03 15:11:12;;;;;;;;;10.67;10.67;;;;;;;;5069519;28;8791;-71
2023/06/03 15:13:39;;;;;;;;;12.33;11.67;;;;;;;;5051786;28;8808;-71
2023/06/03 15:16:05;;;;;;;;;14.75;13.00;;;;;;;;5049967;28;8824;-70
2023/06/03 15:18:30;;;;;;;;;14.33;12.00;;;;;;;;5069856;28;8799;-69
2023/06/03 15:20:55;;;;;;;;;9.33;8.67;;;;;;;;5069866;28;8810;-71
2023/06/03 15:23:20;;;;;;;;;11.00;11.00;;;;;;;;5069550;28;8816;-73
2023/06/03 15:25:46;;;;;;;;;9.33;9.33;;;;;;;;5067994;28;8804;-72
2023/06/03 15:28:11;;;;;;;;;12.67;11.00;;;;;;;;5069632;28;8881;-70
2023/06/03 15:30:37;;;;;;;;;11.33;9.00;;;;;;;;5069492;28;8919;-71
2023/06/03 15:33:03;;;;;;;;;12.00;11.00;;;;;;;;5069805;28;9212;-71
2023/06/03 15:35:28;;;;;;;;;9.00;9.00;;;;;;;;5066937;28;10947;-70
2023/06/03 15:37:53;;;;;;;;;12.00;11.00;;;;;;;;5067427;28;8885;-70
2023/06/03 15:40:18;;;;;;;;;9.00;8.00;;;;;;;;5067292;28;8792;-65
2023/06/03 15:42:44;;;;;;;;;9.00;8.00;;;;;;;;5066780;28;8827;-65
2023/06/03 15:45:09;;;;;;;;;12.00;11.00;;;;;;;;5066846;28;9543;-66
2023/06/03 15:47:35;;;;;;;;;12.33;11.00;;;;;;;;5066517;28;8796;-65
2023/06/03 15:50:00;;;;;;;;;10.00;10.00;;;;;;;;5067830;28;8915;-66
2023/06/03 15:52:26;;;;;;;;;9.00;9.00;;;;;;;;5050944;28;9562;-65
2023/06/03 15:54:52;;;;;;;;;10.33;10.33;;;;;;;;5050963;28;8834;-64
2023/06/03 15:57:17;;;;;;;;;10.00;8.67;;;;;;;;5051477;28;8835;-65
2023/06/03 15:59:42;;;;;;;;;9.00;8.33;;;;;;;;5069670;28;9491;-63
2023/06/03 16:02:08;;;;;;;;;9.67;6.33;;;;;;;;5079669;28;8847;-63
2023/06/03 16:04:35;;;;;;;;;13.00;12.00;;;;;;;;5089924;28;8799;-63
2023/06/03 16:07:03;;;;;;;;;11.33;10.00;;;;;;;;5089922;28;8792;-64
2023/06/03 16:09:28;;;;;;;;;20.50;19.75;;;;;;;;5089331;28;9282;-65
2023/06/03 16:11:53;;;;;;;;;16.00;16.00;;;;;;;;5089651;28;9921;-66
2023/06/03 16:14:19;;;;;;;;;19.75;19.75;;;;;;;;5089800;28;8792;-64
2023/06/03 16:16:44;;;;;;;;;24.50;21.25;;;;;;;;5089981;28;8780;-64
2023/06/03 16:19:10;;;;;;;;;21.00;21.00;;;;;;;;5089806;28;8796;-64
2023/06/03 16:21:36;;;;;;;;;14.00;13.00;;;;;;;;5089841;28;8873;-65
2023/06/03 16:24:01;;;;;;;;;13.00;11.25;;;;;;;;5091535;28;8769;-67
2023/06/03 16:26:26;;;;;;;;;7.50;6.00;;;;;;;;5094136;28;10329;-65
2023/06/03 16:28:51;;;;;;;;;11.00;7.00;;;;;;;;5093410;28;9515;-66
2023/06/03 16:31:19;;;;;;;;;67.00;52.75;;;;;;;;5093399;28;8873;-64
2023/06/03 16:33:47;;;;;;;;;12.25;11.00;;;;;;;;5093673;28;8788;-66
2023/06/03 16:36:12;;;;;;;;;20.25;18.25;;;;;;;;5093344;28;10010;-65
2023/06/03 16:38:38;;;;;;;;;17.50;17.50;;;;;;;;5093033;28;10114;-66
2023/06/03 16:41:04;;;;;;;;;9.00;9.00;;;;;;;;5093095;28;8804;-66
2023/06/03 16:43:29;;;;;;;;;15.75;15.25;;;;;;;;5093142;28;8835;-66
2023/06/03 16:45:55;;;;;;;;;7.00;6.00;;;;;;;;5093315;28;8783;-66
2023/06/03 16:48:20;;;;;;;;;10.00;8.33;;;;;;;;5092914;28;8788;-67
2023/06/03 16:50:45;;;;;;;;;8.00;6.75;;;;;;;;5091864;28;8884;-67
2023/06/03 16:53:10;;;;;;;;;22.25;20.75;;;;;;;;5093606;28;8926;-66
2023/06/03 16:55:36;;;;;;;;;11.50;10.25;;;;;;;;5106360;28;8813;-67
2023/06/03 16:58:01;;;;;;;;;9.50;8.75;;;;;;;;5092625;28;8776;-67
2023/06/03 17:00:26;;;;;;;;;9.25;9.25;;;;;;;;5092846;28;8806;-67
2023/06/03 17:02:51;;;;;;;;;8.00;7.00;;;;;;;;5092813;28;8829;-68
2023/06/03 17:05:17;;;;;;;;;5.00;5.00;;;;;;;;5085623;28;8808;-70
2023/06/03 17:07:42;;;;;;;;;7.00;7.00;;;;;;;;5053721;28;8840;-71
2023/06/03 17:10:07;;;;;;;;;6.75;6.75;;;;;;;;5072185;28;8793;-67
2023/06/03 17:12:33;;;;;;;;;10.50;7.00;;;;;;;;5072571;28;8802;-66
2023/06/03 17:14:58;;;;;;;;;7.00;7.00;;;;;;;;5072257;28;8858;-68
2023/06/03 17:17:23;;;;;;;;;7.50;7.50;;;;;;;;5071225;28;8843;-67
2023/06/03 17:19:49;;;;;;;;;8.50;8.50;;;;;;;;5072314;28;8784;-67
2023/06/03 17:22:14;;;;;;;;;6.00;6.00;;;;;;;;5072228;28;8827;-66
2023/06/03 17:24:39;;;;;;;;;9.00;7.00;;;;;;;;5071979;28;9515;-67
2023/06/03 17:27:05;;;;;;;;;7.50;7.50;;;;;;;;5083188;28;8822;-65
2023/06/03 17:29:30;;;;;;;;;10.25;8.00;;;;;;;;5092413;28;9485;-65
2023/06/03 17:31:55;;;;;;;;;10.00;9.00;;;;;;;;5076528;28;8820;-64
2023/06/03 17:34:21;;;;;;;;;12.00;10.00;;;;;;;;5071466;28;8864;-64
2023/06/03 17:36:46;;;;;;;;;9.00;9.00;;;;;;;;5080168;28;8806;-63
2023/06/03 17:39:11;;;;;;;;;11.00;7.50;;;;;;;;5091816;28;8790;-63
2023/06/03 17:41:38;;;;;;;;;10.25;10.00;;;;;;;;5091736;28;8833;-63
2023/06/03 17:44:03;;;;;;;;;9.25;7.50;;;;;;;;5091903;28;8821;-64
2023/06/03 17:46:29;;;;;;;;;9.50;9.50;;;;;;;;5088719;28;9720;-65
2023/06/03 17:48:54;;;;;;;;;8.00;7.00;;;;;;;;5073732;28;8794;-67
2023/06/03 17:51:19;;;;;;;;;7.50;7.50;;;;;;;;5088354;28;8788;-67
2023/06/03 17:53:45;;;;;;;;;13.00;13.00;;;;;;;;5068812;28;8842;-65
2023/06/03 17:56:10;;;;;;;;;10.50;10.50;;;;;;;;5074388;28;8802;-66
2023/06/03 17:58:35;;;;;;;;;13.00;10.00;;;;;;;;5091660;28;8898;-65
2023/06/03 18:01:01;;;;;;;;;10.00;10.00;;;;;;;;5092114;28;9062;-67
2023/06/03 18:03:26;;;;;;;;;12.75;10.50;;;;;;;;5111611;28;8894;-69
2023/06/03 18:05:51;;;;;;;;;11.75;10.75;;;;;;;;5098548;28;8984;-67
2023/06/03 18:08:17;;;;;;;;;8.00;8.00;;;;;;;;5091311;28;8802;-67
2023/06/03 18:10:42;;;;;;;;;15.00;13.75;;;;;;;;5090928;28;8890;-67
2023/06/03 18:13:07;;;;;;;;;11.00;11.00;;;;;;;;5090196;28;8890;-67
2023/06/03 18:15:33;;;;;;;;;17.00;14.50;;;;;;;;5090387;28;8821;-67
2023/06/03 18:17:59;;;;;;;;;13.75;12.50;;;;;;;;5090251;28;8889;-67
2023/06/03 18:20:24;;;;;;;;;8.75;7.00;;;;;;;;5089834;28;8820;-67
2023/06/03 18:22:50;;;;;;;;;15.75;12.00;;;;;;;;5089594;28;8820;-67
2023/06/03 18:25:15;;;;;;;;;12.00;10.25;;;;;;;;5090011;28;8818;-68
2023/06/03 18:27:40;;;;;;;;;13.75;10.75;;;;;;;;5086497;28;8934;-66
2023/06/03 18:30:06;;;;;;;;;17.50;13.75;;;;;;;;5089479;28;8776;-65
2023/06/03 18:32:31;;;;;;;;;12.75;11.00;;;;;;;;5089371;28;8810;-65
2023/06/03 18:34:57;;;;;;;;;11.00;11.00;;;;;;;;5090302;28;9810;-66
2023/06/03 18:37:22;;;;;;;;;12.50;12.00;;;;;;;;5089346;28;8869;-65
2023/06/03 18:39:47;;;;;;;;;12.25;11.50;;;;;;;;5090675;28;8785;-66
2023/06/03 18:42:13;;;;;;;;;13.50;11.75;;;;;;;;5089549;28;9558;-65
2023/06/03 18:44:39;;;;;;;;;17.25;14.00;;;;;;;;5090920;28;8940;-65
2023/06/03 18:47:05;;;;;;;;;16.25;12.50;;;;;;;;5088710;28;8803;-65
2023/06/03 18:49:30;;;;;;;;;14.75;12.25;;;;;;;;5090549;28;10176;-66
2023/06/03 18:51:56;;;;;;;;;13.00;12.00;;;;;;;;5089312;28;8800;-67
2023/06/03 18:54:21;;;;;;;;;13.50;10.75;;;;;;;;5089417;28;8796;-66
2023/06/03 18:56:47;;;;;;;;;11.00;9.75;;;;;;;;5087926;28;8797;-66
2023/06/03 18:59:12;;;;;;;;;11.50;10.00;;;;;;;;5090499;28;8808;-67
2023/06/03 19:01:39;;;;;;;;;11.75;10.00;;;;;;;;5090034;28;8833;-63
2023/06/03 19:04:05;;;;;;;;;11.50;9.50;;;;;;;;5090252;28;8847;-68
2023/06/03 19:06:30;;;;;;;;;10.25;8.75;;;;;;;;5070951;28;10231;-67
2023/06/03 19:08:56;;;;;;;;;11.00;9.75;;;;;;;;5046909;28;8808;-67
2023/06/03 19:11:21;;;;;;;;;11.00;9.00;;;;;;;;5049164;28;8885;-66
2023/06/03 19:13:46;;;;;;;;;12.50;9.75;;;;;;;;5049707;28;8779;-67
2023/06/03 19:16:12;;;;;;;;;11.50;10.00;;;;;;;;5054167;28;8796;-65
2023/06/03 19:18:37;;;;;;;;;11.00;10.00;;;;;;;;5069791;28;8811;-65
2023/06/03 19:21:03;;;;;;;;;10.25;10.25;;;;;;;;5069419;28;8844;-66
2023/06/03 19:23:30;;;;;;;;;9.00;9.00;;;;;;;;5069078;28;8842;-68
2023/06/03 19:25:56;;;;;;;;;13.75;12.00;;;;;;;;5050283;28;10147;-67
2023/06/03 19:28:21;;;;;;;;;11.00;9.00;;;;;;;;5069270;28;11088;-65
2023/06/03 19:30:46;;;;;;;;;7.50;7.50;;;;;;;;5069630;28;8780;-64
2023/06/03 19:33:15;;;;;;;;;8.00;8.00;;;;;;;;5069437;28;8803;-64
2023/06/03 19:35:40;;;;;;;;;7.00;7.00;;;;;;;;5068084;28;8849;-65
2023/06/03 19:38:05;;;;;;;;;10.00;8.25;;;;;;;;5050880;28;10210;-64
2023/06/03 19:40:31;;;;;;;;;11.25;9.00;;;;;;;;5068937;28;8825;-66
2023/06/03 19:42:56;;;;;;;;;10.00;8.00;;;;;;;;5069133;28;9533;-65
2023/06/03 19:45:22;;;;;;;;;10.75;10.00;;;;;;;;5069008;28;8865;-66
2023/06/03 19:47:49;;;;;;;;;7.50;7.50;;;;;;;;5085960;28;8911;-66
2023/06/03 19:50:15;;;;;;;;;8.75;8.75;;;;;;;;5089407;28;9602;-66
2023/06/03 19:52:40;;;;;;;;;8.50;7.75;;;;;;;;5089815;28;10099;-66
2023/06/03 19:55:06;;;;;;;;;13.50;8.50;;;;;;;;5089100;28;8774;-65
2023/06/03 19:57:31;;;;;;;;;8.50;7.50;;;;;;;;5082049;28;9532;-64
2023/06/03 19:59:58;;;;;;;;;10.00;9.00;;;;;;;;5071364;28;10044;-65
2023/06/03 20:02:23;;;;;;;;;8.00;8.00;;;;;;;;5089066;28;8865;-64
2023/06/03 20:04:48;;;;;;;;;9.50;8.00;;;;;;;;5085999;28;10130;-65
2023/06/03 20:07:14;;;;;;;;;9.25;9.25;;;;;;;;5067671;28;8808;-64
2023/06/03 20:09:39;;;;;;;;;8.25;8.25;;;;;;;;5068523;28;9558;-65
2023/06/03 20:12:05;;;;;;;;;9.25;9.00;;;;;;;;5050906;28;8812;-65
2023/06/03 20:14:30;;;;;;;;;4.75;4.00;;;;;;;;5069134;28;8807;-65
2023/06/03 20:16:56;;;;;;;;;10.25;10.25;;;;;;;;5073044;28;10930;-64
2023/06/03 20:19:21;;;;;;;;;11.25;9.75;;;;;;;;5089021;28;8910;-64
2023/06/03 20:21:46;;;;;;;;;10.00;10.00;;;;;;;;5089014;28;8848;-64
2023/06/03 20:24:12;;;;;;;;;9.75;9.75;;;;;;;;5088704;28;8981;-64
2023/06/03 20:26:37;;;;;;;;;11.00;10.75;;;;;;;;5077722;28;8843;-64
2023/06/03 20:29:03;;;;;;;;;13.00;10.25;;;;;;;;5068851;28;8780;-64
2023/06/03 20:31:29;;;;;;;;;9.00;9.00;;;;;;;;5068664;28;9522;-64
2023/06/03 20:33:55;;;;;;;;;11.50;10.25;;;;;;;;5068839;28;8849;-65
2023/06/03 20:36:22;;;;;;;;;13.75;11.00;;;;;;;;5073282;28;10426;-66
2023/06/03 20:38:47;;;;;;;;;11.50;11.50;;;;;;;;5068514;28;9539;-66
2023/06/03 20:41:13;;;;;;;;;16.50;13.00;;;;;;;;5068529;28;10423;-67
2023/06/03 20:43:38;;;;;;;;;15.25;13.75;;;;;;;;5068559;28;8824;-66
2023/06/03 20:46:04;;;;;;;;;15.50;10.50;;;;;;;;5049183;28;8824;-65
2023/06/03 20:48:29;;;;;;;;;11.00;10.75;;;;;;;;5068336;28;8804;-66
2023/06/03 20:50:54;;;;;;;;;13.00;11.75;;;;;;;;5068516;28;8812;-66
2023/06/03 20:53:20;;;;;;;;;12.00;11.50;;;;;;;;5068931;28;8796;-65
2023/06/03 20:55:45;;;;;;;;;12.25;11.00;;;;;;;;5067853;28;8945;-65
2023/06/03 20:58:11;;;;;;;;;13.75;11.00;;;;;;;;5068153;28;8996;-65
2023/06/03 21:00:36;;;;;;;;;14.50;11.75;;;;;;;;5068547;28;8784;-64
2023/06/03 21:03:02;;;;;;;;;13.25;12.25;;;;;;;;5086116;28;8847;-64
2023/06/03 21:05:28;;;;;;;;;15.00;11.25;;;;;;;;5088611;28;8818;-65
2023/06/03 21:07:53;;;;;;;;;14.00;11.50;;;;;;;;5088814;28;8836;-65
2023/06/03 21:10:18;;;;;;;;;14.00;11.00;;;;;;;;5087876;28;8830;-64
2023/06/03 21:12:43;;;;;;;;;10.25;10.25;;;;;;;;5081787;28;8826;-64
2023/06/03 21:15:09;;;;;;;;;14.00;12.50;;;;;;;;5074249;28;8807;-66
2023/06/03 21:17:35;;;;;;;;;11.75;11.75;;;;;;;;5105546;28;8831;-67
2023/06/03 21:20:00;;;;;;;;;14.25;13.25;;;;;;;;5092520;28;8869;-67
2023/06/03 21:22:26;;;;;;;;;15.25;14.75;;;;;;;;5092286;28;8935;-67
2023/06/03 21:24:51;;;;;;;;;15.25;15.00;;;;;;;;5092188;28;8792;-67
2023/06/03 21:27:17;;;;;;;;;15.75;15.75;;;;;;;;5070633;28;9854;-67
2023/06/03 21:29:42;;;;;;;;;15.00;12.00;;;;;;;;5072163;28;8792;-65
2023/06/03 21:32:08;;;;;;;;;15.50;14.00;;;;;;;;5072080;28;8792;-65
2023/06/03 21:34:33;;;;;;;;;15.75;15.75;;;;;;;;5070922;28;8833;-66
2023/06/03 21:36:58;;;;;;;;;13.25;12.25;;;;;;;;5051664;28;8841;-65
2023/06/03 21:39:24;;;;;;;;;15.00;14.25;;;;;;;;5050744;28;8880;-66
2023/06/03 21:41:49;;;;;;;;;13.25;13.00;;;;;;;;5052003;28;8969;-65
2023/06/03 21:44:15;;;;;;;;;16.00;13.25;;;;;;;;5052548;28;8896;-66
2023/06/03 21:46:40;;;;;;;;;11.00;10.75;;;;;;;;5052259;28;8787;-66
2023/06/03 21:49:05;;;;;;;;;11.50;10.50;;;;;;;;5051910;28;8821;-68
2023/06/03 21:51:33;;;;;;;;;11.25;11.00;;;;;;;;5051759;28;8865;-67
2023/06/03 21:53:59;;;;;;;;;13.50;13.25;;;;;;;;5052115;28;8954;-66
2023/06/03 21:56:25;;;;;;;;;11.50;11.00;;;;;;;;5051437;28;10495;-67
2023/06/03 21:58:51;;;;;;;;;13.00;12.50;;;;;;;;5051708;28;8771;-65
2023/06/03 22:01:23;;;;;;;;;11.25;11.25;;;;;;;;5051256;28;11073;-67
2023/06/03 22:03:49;;;;;;;;;10.25;9.00;;;;;;;;5033088;28;8830;-66
2023/06/03 22:06:14;;;;;;;;;11.75;11.75;;;;;;;;5051239;28;10354;-67
2023/06/03 22:08:40;;;;;;;;;9.50;8.75;;;;;;;;5051380;28;8932;-67
2023/06/03 22:11:05;;;;;;;;;13.25;12.00;;;;;;;;5051124;28;9560;-66
2023/06/03 22:13:30;;;;;;;;;21.25;21.00;;;;;;;;5049735;28;8921;-66
2023/06/03 22:15:55;;;;;;;;;13.00;11.25;;;;;;;;5051140;28;9505;-67
2023/06/03 22:18:21;;;;;;;;;14.25;11.50;;;;;;;;5051350;28;8790;-67
2023/06/03 22:20:46;;;;;;;;;16.00;14.75;;;;;;;;5050520;28;8814;-67
2023/06/03 22:23:11;;;;;;;;;14.00;12.25;;;;;;;;5051110;28;8829;-67
2023/06/03 22:25:36;;;;;;;;;14.00;12.00;;;;;;;;5050989;28;8789;-67
2023/06/03 22:28:02;;;;;;;;;12.50;11.00;;;;;;;;5049400;28;8798;-65
2023/06/03 22:30:27;;;;;;;;;18.00;16.00;;;;;;;;5050922;28;9155;-65